createdAt,value
2019-01-30T00:03:54.628Z,14.30
2019-01-30T00:06:23.113Z,15.50
2019-01-30T00:08:51.611Z,15.73
2019-01-30T00:11:20.140Z,14.07
2019-01-30T00:13:48.659Z,15.50
2019-01-30T00:16:17.198Z,15.27
2019-01-30T00:18:45.656Z,14.47
2019-01-30T00:21:14.203Z,15.00
2019-01-30T00:23:42.672Z,16.00
2019-01-30T00:26:11.206Z,14.97
2019-01-30T00:28:39.691Z,15.40
2019-01-30T00:31:08.124Z,15.57
2019-01-30T00:33:36.626Z,15.33
2019-01-30T00:36:05.232Z,15.00
2019-01-30T00:38:33.687Z,14.53
2019-01-30T00:41:02.259Z,14.37
2019-01-30T00:43:30.731Z,15.80
2019-01-30T00:45:59.245Z,15.10
2019-01-30T00:48:27.873Z,15.10
2019-01-30T00:50:56.648Z,16.33
2019-01-30T00:53:25.255Z,15.43
2019-01-30T00:55:53.802Z,14.87
2019-01-30T00:58:22.306Z,14.47
2019-01-30T01:00:51.296Z,14.07
2019-01-30T01:03:19.893Z,15.10
2019-01-30T01:05:48.431Z,15.70
2019-01-30T01:08:16.965Z,15.53
2019-01-30T01:10:45.477Z,15.30
2019-01-30T01:13:14.652Z,15.63
2019-01-30T01:15:44.239Z,15.83
2019-01-30T01:18:12.705Z,16.30
2019-01-30T01:20:41.274Z,15.80
2019-01-30T01:23:09.899Z,15.57
2019-01-30T01:25:38.423Z,16.00
2019-01-30T01:28:07.074Z,16.60
2019-01-30T01:30:35.513Z,16.00
2019-01-30T01:33:04.052Z,15.73
2019-01-30T01:36:12.553Z,15.43
2019-01-30T01:38:41.091Z,15.63
2019-01-30T01:41:09.635Z,16.60
2019-01-30T01:43:38.113Z,15.63
2019-01-30T01:46:06.588Z,14.93
2019-01-30T01:48:35.149Z,16.00
2019-01-30T01:51:03.613Z,15.50
2019-01-30T01:53:32.224Z,15.80
2019-01-30T01:56:00.704Z,17.80
2019-01-30T01:58:29.389Z,16.40
2019-01-30T02:00:57.941Z,15.30
2019-01-30T02:06:34.551Z,15.37
2019-01-30T02:11:52.111Z,15.90
2019-01-30T02:14:20.907Z,16.33
2019-01-30T02:16:49.497Z,16.10
2019-01-30T02:19:17.954Z,15.50
2019-01-30T02:21:46.448Z,15.73
2019-01-30T02:24:15.242Z,15.67
2019-01-30T02:26:43.728Z,15.20
2019-01-30T02:29:12.200Z,15.50
2019-01-30T02:31:40.800Z,16.07
2019-01-30T02:34:09.323Z,15.50
2019-01-30T02:39:13.618Z,15.53
2019-01-30T02:41:42.410Z,15.50
2019-01-30T02:44:10.923Z,16.27
2019-01-30T02:46:39.437Z,15.80
2019-01-30T02:49:08.266Z,16.20
2019-01-30T02:51:37.166Z,15.47
2019-01-30T02:54:05.810Z,15.43
2019-01-30T02:56:34.391Z,15.03
2019-01-30T02:59:02.929Z,16.20
2019-01-30T03:04:20.427Z,14.50
2019-01-30T03:06:48.902Z,16.53
2019-01-30T03:09:17.379Z,15.97
2019-01-30T03:11:45.799Z,16.10
2019-01-30T03:14:14.296Z,15.07
2019-01-30T03:16:42.877Z,15.33
2019-01-30T03:19:11.442Z,15.07
2019-01-30T03:21:39.891Z,15.97
2019-01-30T03:24:08.358Z,16.23
2019-01-30T03:26:37.206Z,16.10
2019-01-30T03:29:05.785Z,16.63
2019-01-30T03:31:34.304Z,16.03
2019-01-30T03:34:02.886Z,15.20
2019-01-30T03:36:31.436Z,15.70
2019-01-30T03:38:59.892Z,15.37
2019-01-30T03:41:28.370Z,14.87
2019-01-30T03:43:56.912Z,15.83
2019-01-30T03:46:25.355Z,15.10
2019-01-30T03:48:53.811Z,15.97
2019-01-30T03:51:22.350Z,15.17
2019-01-30T03:53:51.232Z,14.77
2019-01-30T03:56:19.880Z,14.57
2019-01-30T03:58:48.413Z,15.93
2019-01-30T04:01:56.911Z,14.07
2019-01-30T04:04:25.291Z,16.80
2019-01-30T04:06:53.830Z,14.37
2019-01-30T04:09:22.469Z,14.13
2019-01-30T04:11:50.946Z,14.93
2019-01-30T04:14:19.476Z,15.30
2019-01-30T04:16:48.007Z,15.17
2019-01-30T04:19:35.752Z,14.43
2019-01-30T04:22:04.371Z,15.10
2019-01-30T04:24:32.784Z,15.33
2019-01-30T04:27:01.255Z,14.93
2019-01-30T04:29:29.706Z,15.40
2019-01-30T04:31:58.677Z,15.07
2019-01-30T04:34:27.264Z,15.23
2019-01-30T04:36:55.720Z,14.80
2019-01-30T04:39:24.249Z,14.77
2019-01-30T04:41:52.693Z,15.20
2019-01-30T04:44:21.209Z,15.10
2019-01-30T04:46:49.985Z,14.23
2019-01-30T04:49:18.536Z,15.37
2019-01-30T04:51:47.017Z,13.93
2019-01-30T04:54:15.600Z,14.23
2019-01-30T04:56:44.090Z,14.83
2019-01-30T04:59:12.641Z,14.67
2019-01-30T05:01:49.456Z,14.97
2019-01-30T05:04:11.352Z,14.53
2019-01-30T05:06:39.853Z,14.50
2019-01-30T05:09:48.295Z,14.50
2019-01-30T05:12:17.203Z,14.77
2019-01-30T05:14:45.588Z,15.03
2019-01-30T05:17:14.132Z,14.00
2019-01-30T05:19:42.620Z,14.67
2019-01-30T05:22:11.543Z,14.93
2019-01-30T05:24:40.447Z,14.00
2019-01-30T05:27:08.932Z,14.60
2019-01-30T05:29:37.375Z,14.13
2019-01-30T05:32:06.011Z,14.67
2019-01-30T05:34:34.532Z,14.80
2019-01-30T05:37:03.354Z,15.53
2019-01-30T05:39:31.902Z,14.23
2019-01-30T05:42:00.469Z,14.40
2019-01-30T05:44:29.045Z,16.57
2019-01-30T05:46:57.504Z,14.33
2019-01-30T05:49:25.966Z,16.13
2019-01-30T05:51:54.562Z,14.40
2019-01-30T05:54:23.364Z,15.80
2019-01-30T05:56:51.987Z,15.20
2019-01-30T05:59:20.522Z,15.17
2019-01-30T06:01:49.311Z,15.93
2019-01-30T06:04:17.810Z,16.20
2019-01-30T06:06:46.316Z,15.57
2019-01-30T06:09:14.827Z,13.93
2019-01-30T06:11:43.460Z,16.03
2019-01-30T06:14:12.030Z,15.73
2019-01-30T06:16:40.598Z,15.10
2019-01-30T06:19:09.130Z,16.00
2019-01-30T06:21:37.691Z,15.03
2019-01-30T06:24:06.235Z,15.63
2019-01-30T06:26:34.789Z,14.83
2019-01-30T06:29:03.358Z,15.17
2019-01-30T06:31:31.750Z,19.30
2019-01-30T06:34:00.505Z,15.10
2019-01-30T06:36:29.049Z,14.17
2019-01-30T06:38:57.563Z,15.50
2019-01-30T06:41:26.150Z,14.23
2019-01-30T06:43:54.795Z,15.60
2019-01-30T06:46:23.740Z,15.80
2019-01-30T06:48:52.622Z,15.87
2019-01-30T06:51:21.099Z,14.57
2019-01-30T06:53:49.608Z,15.60
2019-01-30T06:56:18.231Z,14.23
2019-01-30T06:58:46.814Z,14.70
2019-01-30T07:01:15.341Z,16.03
2019-01-30T07:03:43.742Z,15.40
2019-01-30T07:06:12.253Z,15.77
2019-01-30T07:08:40.696Z,16.87
2019-01-30T07:11:10.674Z,14.20
2019-01-30T07:13:39.546Z,14.00
2019-01-30T07:16:07.987Z,14.80
2019-01-30T07:18:36.445Z,14.43
2019-01-30T07:21:05.351Z,14.83
2019-01-30T07:23:34.139Z,15.20
2019-01-30T07:26:02.624Z,15.10
2019-01-30T07:28:31.135Z,15.17
2019-01-30T07:30:59.636Z,15.03
2019-01-30T07:33:28.087Z,14.70
2019-01-30T07:35:56.650Z,14.47
2019-01-30T07:38:25.462Z,14.23
2019-01-30T07:40:53.953Z,14.80
2019-01-30T07:43:23.002Z,15.00
2019-01-30T07:45:52.635Z,15.50
2019-01-30T07:48:21.184Z,14.43
2019-01-30T07:50:49.697Z,15.00
2019-01-30T07:53:18.204Z,15.17
2019-01-30T07:55:46.694Z,17.57
2019-01-30T07:58:15.154Z,16.30
2019-01-30T08:00:43.743Z,15.90
2019-01-30T08:03:12.341Z,15.60
2019-01-30T08:05:40.844Z,15.00
2019-01-30T08:08:09.324Z,15.73
2019-01-30T08:10:37.905Z,16.97
2019-01-30T08:13:06.768Z,15.90
2019-01-30T08:15:35.371Z,15.83
2019-01-30T08:18:03.895Z,16.33
2019-01-30T08:20:32.526Z,16.20
2019-01-30T08:23:01.013Z,17.60
2019-01-30T08:25:29.630Z,16.53
2019-01-30T08:27:58.705Z,16.70
2019-01-30T08:31:07.376Z,15.87
2019-01-30T08:33:35.841Z,15.73
2019-01-30T08:36:04.675Z,28.33
2019-01-30T08:38:33.426Z,17.23
2019-01-30T08:41:01.872Z,17.10
2019-01-30T08:43:30.521Z,17.10
2019-01-30T08:45:59.026Z,17.13
2019-01-30T08:48:30.095Z,16.23
2019-01-30T08:50:57.926Z,17.07
2019-01-30T08:53:26.760Z,16.17
2019-01-30T08:55:55.268Z,16.30
2019-01-30T08:58:23.876Z,16.40
2019-01-30T09:00:52.457Z,16.10
2019-01-30T09:03:21.254Z,17.17
2019-01-30T09:05:49.835Z,16.07
2019-01-30T09:08:18.286Z,15.93
2019-01-30T09:10:46.897Z,16.40
2019-01-30T09:13:15.472Z,15.73
2019-01-30T09:15:43.998Z,15.30
2019-01-30T09:18:12.458Z,16.37
2019-01-30T09:20:40.942Z,16.17
2019-01-30T09:23:09.545Z,16.10
2019-01-30T09:25:37.985Z,16.57
2019-01-30T09:28:06.513Z,25.53
2019-01-30T09:31:14.919Z,17.27
2019-01-30T09:33:43.375Z,16.57
2019-01-30T09:36:11.860Z,16.23
2019-01-30T09:38:40.416Z,16.30
2019-01-30T09:41:09.024Z,15.67
2019-01-30T09:43:37.533Z,15.83
2019-01-30T09:46:06.045Z,15.10
2019-01-30T09:48:37.015Z,15.90
2019-01-30T09:51:04.918Z,15.80
2019-01-30T09:53:33.453Z,16.03
2019-01-30T09:56:02.183Z,16.20
2019-01-30T09:58:30.605Z,15.20
2019-01-30T10:00:59.260Z,15.30
2019-01-30T10:03:47.308Z,16.77
2019-01-30T10:06:15.851Z,15.77
2019-01-30T10:08:44.486Z,17.63
2019-01-30T10:11:12.935Z,15.77
2019-01-30T10:13:41.541Z,16.13
2019-01-30T10:16:09.992Z,15.00
2019-01-30T10:18:38.520Z,15.80
2019-01-30T10:21:07.068Z,14.60
2019-01-30T10:23:35.566Z,14.33
2019-01-30T10:26:04.098Z,14.53
2019-01-30T10:28:32.589Z,15.20
2019-01-30T10:31:01.430Z,15.10
2019-01-30T10:33:29.893Z,15.63
2019-01-30T10:35:58.420Z,14.23
2019-01-30T10:38:26.986Z,14.40
2019-01-30T10:40:55.524Z,15.50
2019-01-30T10:43:23.959Z,15.43
2019-01-30T10:45:52.355Z,15.43
2019-01-30T10:48:20.888Z,14.33
2019-01-30T10:50:49.357Z,15.87
2019-01-30T10:53:17.885Z,15.47
2019-01-30T10:55:46.446Z,14.90
2019-01-30T10:58:54.863Z,14.27
2019-01-30T11:01:23.422Z,15.10
2019-01-30T11:03:57.400Z,14.10
2019-01-30T11:06:22.649Z,14.93
2019-01-30T11:08:51.039Z,13.70
2019-01-30T11:11:19.552Z,13.90
2019-01-30T11:13:48.071Z,13.63
2019-01-30T11:16:16.686Z,13.90
2019-01-30T11:18:45.299Z,13.43
2019-01-30T11:21:13.855Z,13.43
2019-01-30T11:23:42.330Z,13.53
2019-01-30T11:26:11.060Z,14.53
2019-01-30T11:28:39.669Z,13.97
2019-01-30T11:31:08.178Z,13.70
2019-01-30T11:33:36.862Z,13.07
2019-01-30T11:36:05.390Z,12.90
2019-01-30T11:38:34.020Z,12.33
2019-01-30T11:41:02.746Z,12.40
2019-01-30T11:43:31.385Z,12.60
2019-01-30T11:45:59.900Z,13.07
2019-01-30T11:48:28.475Z,12.93
2019-01-30T11:50:57.088Z,13.00
2019-01-30T11:53:25.784Z,13.00
2019-01-30T11:55:54.309Z,13.80
2019-01-30T11:58:22.762Z,13.43
2019-01-30T12:01:10.490Z,13.90
2019-01-30T12:03:39.016Z,13.00
2019-01-30T12:06:07.970Z,14.13
2019-01-30T12:08:36.561Z,14.07
2019-01-30T12:11:05.154Z,14.17
2019-01-30T12:13:33.709Z,14.40
2019-01-30T12:16:02.250Z,14.40
2019-01-30T12:18:30.811Z,14.80
2019-01-30T12:20:59.313Z,13.60
2019-01-30T12:23:27.764Z,14.50
2019-01-30T12:25:56.252Z,14.83
2019-01-30T12:28:24.810Z,13.80
2019-01-30T12:30:53.364Z,14.40
2019-01-30T12:33:21.992Z,14.00
2019-01-30T12:35:50.537Z,14.93
2019-01-30T12:38:19.084Z,14.50
2019-01-30T12:43:36.670Z,14.90
2019-01-30T12:46:05.359Z,16.03
2019-01-30T12:48:33.876Z,16.00
2019-01-30T12:51:02.504Z,15.13
2019-01-30T12:53:31.134Z,15.20
2019-01-30T12:55:59.707Z,14.50
2019-01-30T12:58:28.306Z,15.00
2019-01-30T13:00:56.794Z,16.07
2019-01-30T13:03:25.409Z,15.57
2019-01-30T13:05:53.966Z,15.73
2019-01-30T13:08:22.569Z,14.70
2019-01-30T13:10:51.123Z,15.80
2019-01-30T13:13:19.733Z,15.50
2019-01-30T13:15:48.264Z,16.70
2019-01-30T13:18:18.650Z,16.20
2019-01-30T13:20:47.222Z,16.53
2019-01-30T13:23:15.693Z,16.77
2019-01-30T13:25:44.408Z,16.07
2019-01-30T13:28:12.887Z,17.60
2019-01-30T13:30:43.581Z,17.13
2019-01-30T13:33:51.759Z,18.60
2019-01-30T13:36:20.309Z,18.27
2019-01-30T13:38:48.923Z,17.30
2019-01-30T13:41:17.383Z,18.80
2019-01-30T13:43:45.854Z,19.07
2019-01-30T13:46:14.408Z,19.37
2019-01-30T13:48:43.351Z,19.80
2019-01-30T13:51:11.891Z,20.13
2019-01-30T13:53:40.431Z,20.20
2019-01-30T13:56:09.112Z,19.63
2019-01-30T13:58:37.722Z,20.33
2019-01-30T14:01:16.987Z,20.37
2019-01-30T14:03:36.591Z,18.80
2019-01-30T14:06:05.256Z,20.53
2019-01-30T14:08:33.721Z,25.63
2019-01-30T14:11:02.170Z,18.03
2019-01-30T14:13:30.799Z,19.47
2019-01-30T14:15:59.257Z,19.67
2019-01-30T14:18:27.854Z,18.87
2019-01-30T14:20:56.375Z,19.50
2019-01-30T14:23:39.163Z,18.47
2019-01-30T14:25:55.190Z,18.57
2019-01-30T14:28:23.726Z,18.70
2019-01-30T14:30:52.174Z,19.13
2019-01-30T14:33:20.660Z,18.33
2019-01-30T14:35:49.973Z,18.47
2019-01-30T14:38:18.364Z,18.17
2019-01-30T14:40:46.896Z,18.80
2019-01-30T14:43:15.321Z,18.97
2019-01-30T14:45:44.113Z,16.87
2019-01-30T14:48:12.825Z,16.10
2019-01-30T14:50:41.324Z,17.50
2019-01-30T14:53:09.826Z,17.67
2019-01-30T14:56:37.376Z,18.43
2019-01-30T14:58:53.146Z,17.30
2019-01-30T15:01:21.838Z,15.73
2019-01-30T15:03:50.321Z,16.23
2019-01-30T15:06:39.089Z,18.43
2019-01-30T15:09:27.211Z,16.80
2019-01-30T15:12:15.101Z,17.00
2019-01-30T15:15:44.229Z,16.90
2019-01-30T15:18:34.393Z,16.00
2019-01-30T15:21:40.745Z,17.67
2019-01-30T15:23:57.049Z,17.40
2019-01-30T15:26:45.464Z,16.60
2019-01-30T15:29:32.474Z,15.60
2019-01-30T15:34:32.419Z,16.20
2019-01-30T15:37:01.133Z,16.40
2019-01-30T15:39:29.926Z,16.03
2019-01-30T15:41:58.511Z,16.73
2019-01-30T15:44:27.159Z,16.73
2019-01-30T15:46:56.067Z,15.63
2019-01-30T15:49:24.555Z,16.20
2019-01-30T15:51:53.554Z,16.10
2019-01-30T15:54:43.393Z,16.10
2019-01-30T15:57:12.650Z,16.00
2019-01-30T16:02:31.452Z,15.40
2019-01-30T16:05:00.270Z,15.70
2019-01-30T16:07:28.966Z,16.53
2019-01-30T16:09:57.564Z,16.60
2019-01-30T16:12:26.073Z,16.00
2019-01-30T16:14:54.738Z,16.77
2019-01-30T16:17:23.366Z,15.70
2019-01-30T16:20:12.388Z,15.20
2019-01-30T16:23:21.056Z,16.60
2019-01-30T16:25:49.738Z,15.87
2019-01-30T16:28:18.723Z,14.93
2019-01-30T16:30:47.509Z,14.40
2019-01-30T16:33:39.626Z,14.90
2019-01-30T16:36:08.898Z,15.77
2019-01-30T16:38:38.071Z,14.57
2019-01-30T16:41:06.853Z,15.00
2019-01-30T16:43:35.582Z,14.53
2019-01-30T16:52:20.126Z,15.03
2019-01-30T16:54:48.938Z,14.70
2019-01-30T16:57:17.540Z,15.07
2019-01-30T16:59:45.995Z,15.67
2019-01-30T17:02:14.733Z,15.47
2019-01-30T17:04:43.260Z,14.67
2019-01-30T17:07:11.804Z,15.93
2019-01-30T17:09:40.377Z,15.30
2019-01-30T17:12:09.094Z,14.97
2019-01-30T17:24:57.318Z,14.80
2019-01-30T17:27:26.195Z,14.30
2019-01-30T17:29:55.121Z,14.67
2019-01-30T17:32:23.624Z,14.77
2019-01-30T17:34:52.187Z,15.30
2019-01-30T17:37:20.715Z,14.77
2019-01-30T17:39:49.526Z,15.40
2019-01-30T17:42:18.104Z,14.67
2019-01-30T17:44:46.720Z,14.83
2019-01-30T17:47:15.269Z,20.50
2019-01-30T17:49:43.897Z,15.63
2019-01-30T17:52:12.437Z,14.43
2019-01-30T17:54:41.414Z,15.07
2019-01-30T17:57:11.647Z,15.80
2019-01-30T17:59:40.128Z,16.87
2019-01-30T18:04:59.286Z,15.90
2019-01-30T18:07:28.037Z,16.20
2019-01-30T18:09:56.548Z,15.90
2019-01-30T18:12:25.400Z,16.70
2019-01-30T18:14:53.901Z,17.17
2019-01-30T18:17:22.785Z,16.70
2019-01-30T18:19:51.564Z,15.93
2019-01-30T18:22:20.243Z,16.67
2019-01-30T18:24:49.284Z,16.80
2019-01-30T18:27:19.039Z,17.00
2019-01-30T18:29:47.505Z,16.97
2019-01-30T18:32:16.043Z,16.93
2019-01-30T18:34:44.591Z,18.03
2019-01-30T18:37:13.174Z,18.70
2019-01-30T18:39:41.790Z,17.97
2019-01-30T18:42:10.488Z,17.27
2019-01-30T18:44:39.017Z,17.77
2019-01-30T18:47:07.478Z,17.20
2019-01-30T18:49:36.011Z,16.97
2019-01-30T18:52:04.551Z,18.37
2019-01-30T18:54:33.060Z,17.93
2019-01-30T18:57:01.698Z,16.70
2019-01-30T18:59:30.251Z,18.77
2019-01-30T19:01:58.818Z,19.03
2019-01-30T19:04:27.296Z,17.83
2019-01-30T19:06:55.897Z,17.90
2019-01-30T19:09:24.428Z,18.93
2019-01-30T19:11:52.872Z,19.07
2019-01-30T19:14:21.358Z,18.60
2019-01-30T19:16:49.868Z,18.20
2019-01-30T19:19:18.344Z,19.87
2019-01-30T19:21:47.106Z,18.90
2019-01-30T19:24:15.587Z,19.37
2019-01-30T19:26:44.207Z,19.27
2019-01-30T19:29:12.807Z,19.83
2019-01-30T19:31:41.363Z,19.20
2019-01-30T19:34:09.905Z,20.70
2019-01-30T19:36:38.590Z,20.13
2019-01-30T19:39:47.003Z,20.90
2019-01-30T19:42:15.605Z,20.87
2019-01-30T19:44:44.179Z,20.53
2019-01-30T19:47:12.817Z,21.97
2019-01-30T19:49:41.685Z,20.53
2019-01-30T19:52:17.031Z,21.47
2019-01-30T19:54:45.646Z,22.97
2019-01-30T19:57:14.294Z,22.07
2019-01-30T19:59:42.797Z,21.90
2019-01-30T20:02:11.464Z,23.23
2019-01-30T20:04:39.921Z,22.37
2019-01-30T20:07:14.729Z,22.00
2019-01-30T20:09:38.813Z,22.47
2019-01-30T20:12:07.498Z,23.40
2019-01-30T20:14:36.024Z,23.13
2019-01-30T20:17:04.620Z,23.40
2019-01-30T20:19:33.187Z,22.67
2019-01-30T20:22:01.676Z,27.70
2019-01-30T20:24:30.261Z,27.70
2019-01-30T20:26:58.815Z,27.50
2019-01-30T20:29:28.393Z,24.93
2019-01-30T20:31:56.880Z,25.70
2019-01-30T20:34:25.425Z,24.83
2019-01-30T20:36:54.014Z,23.70
2019-01-30T20:39:22.453Z,24.77
2019-01-30T20:41:51.026Z,23.97
2019-01-30T20:44:19.934Z,23.23
2019-01-30T20:46:48.848Z,24.33
2019-01-30T20:49:17.688Z,23.77
2019-01-30T20:51:46.936Z,26.70
2019-01-30T20:54:15.562Z,23.67
2019-01-30T20:56:44.186Z,26.20
2019-01-30T20:59:12.678Z,24.83
2019-01-30T21:01:41.496Z,26.53
2019-01-30T21:04:09.917Z,25.20
2019-01-30T21:06:59.423Z,26.17
2019-01-30T21:09:28.262Z,24.70
2019-01-30T21:11:56.772Z,24.63
2019-01-30T21:14:25.420Z,25.27
2019-01-30T21:16:53.980Z,25.70
2019-01-30T21:19:22.415Z,26.60
2019-01-30T21:21:50.992Z,26.43
2019-01-30T21:24:19.388Z,27.43
2019-01-30T21:26:47.820Z,25.03
2019-01-30T21:29:16.367Z,25.93
2019-01-30T21:31:44.840Z,27.47
2019-01-30T21:34:13.493Z,24.70
2019-01-30T21:36:41.959Z,25.73
2019-01-30T21:39:10.501Z,28.33
2019-01-30T21:41:39.122Z,32.43
2019-01-30T21:44:07.647Z,31.10
2019-01-30T21:46:36.160Z,27.13
2019-01-30T21:49:04.731Z,28.70
2019-01-30T21:51:33.235Z,26.70
2019-01-30T21:54:01.714Z,27.57
2019-01-30T21:56:30.280Z,27.47
2019-01-30T21:58:58.733Z,26.80
2019-01-30T22:01:27.313Z,27.70
2019-01-30T22:03:55.767Z,28.27
2019-01-30T22:06:24.303Z,28.40
2019-01-30T22:08:52.871Z,27.57
2019-01-30T22:11:21.395Z,26.60
2019-01-30T22:13:49.870Z,29.33
2019-01-30T22:16:18.424Z,28.10
2019-01-30T22:18:46.907Z,27.00
2019-01-30T22:21:15.427Z,26.10
2019-01-30T22:23:43.986Z,26.77
2019-01-30T22:26:12.512Z,27.27
2019-01-30T22:28:41.419Z,27.03
2019-01-30T22:31:09.913Z,28.30
2019-01-30T22:33:38.463Z,26.80
2019-01-30T22:36:06.953Z,27.37
2019-01-30T22:38:35.401Z,27.90
2019-01-30T22:41:03.964Z,27.90
2019-01-30T22:43:32.477Z,28.10
2019-01-30T22:46:01.038Z,28.33
2019-01-30T22:48:29.492Z,27.40
2019-01-30T22:50:57.973Z,28.03
2019-01-30T22:56:15.550Z,28.53
2019-01-30T22:58:44.061Z,29.17
2019-01-30T23:01:52.617Z,28.50
2019-01-30T23:05:01.383Z,28.53
2019-01-30T23:08:09.908Z,28.60
2019-01-30T23:11:18.431Z,28.10
2019-01-30T23:14:26.929Z,28.03
2019-01-30T23:17:35.412Z,30.53
2019-01-30T23:20:43.867Z,29.30
2019-01-30T23:23:52.327Z,28.30
2019-01-30T23:27:00.783Z,28.50
2019-01-30T23:30:09.244Z,30.00
2019-01-30T23:33:17.698Z,29.53
2019-01-30T23:36:24.889Z,29.97
2019-01-30T23:39:33.316Z,28.90
2019-01-30T23:42:40.797Z,28.80
2019-01-30T23:45:47.999Z,29.57
2019-01-30T23:48:55.079Z,29.90
2019-01-30T23:52:02.349Z,28.47
2019-01-30T23:55:10.793Z,29.17
2019-01-30T23:58:17.953Z,28.60
